createdAt,value
2022-12-24T00:00:09.006Z,107.13
2022-12-24T00:02:35.535Z,98.15
2022-12-24T00:05:02.225Z,92.75
2022-12-24T00:07:29.129Z,104.80
2022-12-24T00:09:55.612Z,93.43
2022-12-24T00:12:22.030Z,95.03
2022-12-24T00:14:48.429Z,98.97
2022-12-24T00:17:15.094Z,94.88
2022-12-24T00:19:43.151Z,92.15
2022-12-24T00:22:09.664Z,99.72
2022-12-24T00:24:36.224Z,86.53
2022-12-24T00:27:03.534Z,90.45
2022-12-24T00:29:29.993Z,99.63
2022-12-24T00:31:56.419Z,99.53
2022-12-24T00:34:24.510Z,91.53
2022-12-24T00:36:51.346Z,111.07
2022-12-24T00:39:17.832Z,99.00
2022-12-24T00:41:44.592Z,93.45
2022-12-24T00:44:11.151Z,100.68
2022-12-24T00:46:40.181Z,102.32
2022-12-24T00:49:08.316Z,93.50
2022-12-24T00:51:35.914Z,100.72
2022-12-24T00:54:03.359Z,104.05
2022-12-24T00:56:29.954Z,104.20
2022-12-24T00:58:56.620Z,104.20
2022-12-24T01:01:23.596Z,103.85
2022-12-24T01:03:51.198Z,107.78
2022-12-24T01:06:21.566Z,100.03
2022-12-24T01:08:51.631Z,96.60
2022-12-24T01:11:18.611Z,98.47
2022-12-24T01:13:45.071Z,93.38
2022-12-24T01:16:17.921Z,89.35
2022-12-24T01:18:44.542Z,93.45
2022-12-24T01:21:11.030Z,93.97
2022-12-24T01:23:37.458Z,88.97
2022-12-24T01:26:04.757Z,90.03
2022-12-24T01:28:32.607Z,92.10
2022-12-24T01:30:59.786Z,99.30
2022-12-24T01:33:29.328Z,94.43
2022-12-24T01:35:55.739Z,97.03
2022-12-24T01:38:22.178Z,106.55
2022-12-24T01:41:06.963Z,104.05
2022-12-24T01:43:33.854Z,101.15
2022-12-24T01:46:07.490Z,104.43
2022-12-24T01:48:52.088Z,107.82
2022-12-24T01:51:37.677Z,111.72
2022-12-24T01:54:17.152Z,116.47
2022-12-24T01:56:49.186Z,108.85
2022-12-24T01:59:18.857Z,111.80
2022-12-24T02:01:48.254Z,117.65
2022-12-24T02:04:24.511Z,108.50
2022-12-24T02:06:50.935Z,101.90
2022-12-24T02:09:18.015Z,111.72
2022-12-24T02:11:44.950Z,108.07
2022-12-24T02:14:13.256Z,104.65
2022-12-24T02:17:01.581Z,119.28
2022-12-24T02:19:46.773Z,111.38
2022-12-24T02:22:38.161Z,109.38
2022-12-24T02:25:13.300Z,96.93
2022-12-24T02:28:05.609Z,115.57
2022-12-24T02:30:38.692Z,107.60
2022-12-24T02:33:17.944Z,102.32
2022-12-24T02:35:59.260Z,123.80
2022-12-24T02:38:47.070Z,111.28
2022-12-24T02:41:18.913Z,104.53
2022-12-24T02:43:48.637Z,108.00
2022-12-24T02:46:25.404Z,112.88
2022-12-24T02:48:52.404Z,112.10
2022-12-24T02:51:24.272Z,112.45
2022-12-24T02:53:50.978Z,94.68
2022-12-24T02:56:35.226Z,97.20
2022-12-24T02:59:29.597Z,102.47
2022-12-24T03:02:08.843Z,103.25
2022-12-24T03:05:02.767Z,103.18
2022-12-24T03:07:51.586Z,112.50
2022-12-24T03:10:46.537Z,101.70
2022-12-24T03:13:19.442Z,94.47
2022-12-24T03:15:48.230Z,99.10
2022-12-24T03:18:19.522Z,100.78
2022-12-24T03:20:52.840Z,101.93
2022-12-24T03:23:19.304Z,100.38
2022-12-24T03:25:46.372Z,103.20
2022-12-24T03:28:15.462Z,122.82
2022-12-24T03:30:44.566Z,100.70
2022-12-24T03:33:12.721Z,93.88
2022-12-24T03:35:39.468Z,107.82
2022-12-24T03:38:05.999Z,106.25
2022-12-24T03:40:32.445Z,104.90
2022-12-24T03:42:58.931Z,114.20
2022-12-24T03:45:25.452Z,96.30
2022-12-24T03:47:51.911Z,107.35
2022-12-24T03:50:18.358Z,105.28
2022-12-24T03:52:44.877Z,109.38
2022-12-24T03:55:11.318Z,105.70
2022-12-24T03:57:37.853Z,102.55
2022-12-24T04:00:08.029Z,103.25
2022-12-24T04:02:34.725Z,100.18
2022-12-24T04:05:01.235Z,101.40
2022-12-24T04:07:27.646Z,104.32
2022-12-24T04:09:54.074Z,103.40
2022-12-24T04:12:20.536Z,94.10
2022-12-24T04:14:47.097Z,97.57
2022-12-24T04:17:13.515Z,102.53
2022-12-24T04:19:40.010Z,97.70
2022-12-24T04:22:06.424Z,103.60
2022-12-24T04:24:32.818Z,111.43
2022-12-24T04:26:59.281Z,91.45
2022-12-24T04:29:25.712Z,102.25
2022-12-24T04:31:52.175Z,91.07
2022-12-24T04:34:18.759Z,97.55
2022-12-24T04:36:45.221Z,105.25
2022-12-24T04:39:11.785Z,97.43
2022-12-24T04:41:38.292Z,99.53
2022-12-24T04:44:04.915Z,94.20
2022-12-24T04:46:31.532Z,88.32
2022-12-24T04:48:58.794Z,95.88
2022-12-24T04:51:26.858Z,92.53
2022-12-24T04:53:53.986Z,89.72
2022-12-24T04:56:26.703Z,100.15
2022-12-24T04:58:53.820Z,109.38
2022-12-24T05:01:23.430Z,92.90
2022-12-24T05:03:50.722Z,99.50
2022-12-24T05:06:19.997Z,101.13
2022-12-24T05:08:46.892Z,98.82
2022-12-24T05:11:15.506Z,105.72
2022-12-24T05:13:47.507Z,106.63
2022-12-24T05:16:15.876Z,95.95
2022-12-24T05:18:42.479Z,95.00
2022-12-24T05:21:10.881Z,100.13
2022-12-24T05:23:56.875Z,104.25
2022-12-24T05:26:34.138Z,102.03
2022-12-24T05:29:02.457Z,103.43
2022-12-24T05:31:31.041Z,94.45
2022-12-24T05:33:57.647Z,98.20
2022-12-24T05:36:24.370Z,97.90
2022-12-24T05:38:51.459Z,96.55
2022-12-24T05:41:18.245Z,102.82
2022-12-24T05:43:44.797Z,99.50
2022-12-24T05:46:13.899Z,93.15
2022-12-24T05:48:40.494Z,109.18
2022-12-24T05:51:08.572Z,96.35
2022-12-24T05:53:36.055Z,94.18
2022-12-24T05:56:14.290Z,99.97
2022-12-24T05:58:41.668Z,100.50
2022-12-24T06:01:09.660Z,110.57
2022-12-24T06:03:36.813Z,90.93
2022-12-24T06:06:06.769Z,98.53
2022-12-24T06:08:34.340Z,95.90
2022-12-24T06:11:03.700Z,105.03
2022-12-24T06:13:31.246Z,109.95
2022-12-24T06:15:59.016Z,101.43
2022-12-24T06:18:25.910Z,100.38
2022-12-24T06:20:53.701Z,102.25
2022-12-24T06:23:20.697Z,102.72
2022-12-24T06:25:47.758Z,113.97
2022-12-24T06:28:14.455Z,101.93
2022-12-24T06:30:41.883Z,103.88
2022-12-24T06:33:08.433Z,100.93
2022-12-24T06:35:34.861Z,109.60
2022-12-24T06:38:01.289Z,97.00
2022-12-24T06:40:28.094Z,100.25
2022-12-24T06:42:54.728Z,101.95
2022-12-24T06:45:21.516Z,103.07
2022-12-24T06:47:47.910Z,104.32
2022-12-24T06:50:14.394Z,113.50
2022-12-24T06:52:40.845Z,100.90
2022-12-24T06:55:07.864Z,98.72
2022-12-24T06:57:34.325Z,117.03
2022-12-24T07:00:00.840Z,120.80
2022-12-24T07:02:28.096Z,108.10
2022-12-24T07:04:54.621Z,118.85
2022-12-24T07:07:21.082Z,111.72
2022-12-24T07:09:47.548Z,107.15
2022-12-24T07:12:13.928Z,110.22
2022-12-24T07:14:40.355Z,108.15
2022-12-24T07:17:06.857Z,118.25
2022-12-24T07:19:34.253Z,99.90
2022-12-24T07:22:00.767Z,103.00
2022-12-24T07:24:27.176Z,102.78
2022-12-24T07:26:53.654Z,107.93
2022-12-24T07:29:20.481Z,103.28
2022-12-24T07:31:47.028Z,96.00
2022-12-24T07:34:13.582Z,96.95
2022-12-24T07:36:40.002Z,111.85
2022-12-24T07:39:06.382Z,109.40
2022-12-24T07:41:37.935Z,113.38
2022-12-24T07:44:12.296Z,120.18
2022-12-24T07:46:39.236Z,113.35
2022-12-24T07:49:05.816Z,120.28
2022-12-24T07:51:32.300Z,130.52
2022-12-24T07:53:58.815Z,109.35
2022-12-24T07:56:25.455Z,120.65
2022-12-24T07:58:52.554Z,107.25
2022-12-24T08:01:19.184Z,107.63
2022-12-24T08:03:45.757Z,104.80
2022-12-24T08:06:12.444Z,124.18
2022-12-24T08:08:39.007Z,103.90
2022-12-24T08:11:07.008Z,110.57
2022-12-24T08:13:33.912Z,101.82
2022-12-24T08:16:00.632Z,97.72
2022-12-24T08:18:27.108Z,108.70
2022-12-24T08:20:53.535Z,108.43
2022-12-24T08:23:20.098Z,105.28
2022-12-24T08:25:47.661Z,103.70
2022-12-24T08:28:16.491Z,116.78
2022-12-24T08:30:43.641Z,116.22
2022-12-24T08:33:10.409Z,104.32
2022-12-24T08:35:36.966Z,114.28
2022-12-24T08:38:03.451Z,113.30
2022-12-24T08:40:29.870Z,109.35
2022-12-24T08:42:56.495Z,115.45
2022-12-24T08:45:22.991Z,118.05
2022-12-24T08:47:49.413Z,102.70
2022-12-24T08:50:15.935Z,115.53
2022-12-24T08:52:42.353Z,116.35
2022-12-24T08:55:09.138Z,116.20
2022-12-24T08:57:37.444Z,118.55
2022-12-24T09:00:06.341Z,103.95
2022-12-24T09:02:33.101Z,103.60
2022-12-24T09:04:59.751Z,105.38
2022-12-24T09:07:26.212Z,120.15
2022-12-24T09:09:52.607Z,115.50
2022-12-24T09:12:19.077Z,120.82
2022-12-24T09:14:45.600Z,115.40
2022-12-24T09:17:12.065Z,116.15
2022-12-24T09:19:38.655Z,112.22
2022-12-24T09:22:05.407Z,111.45
2022-12-24T09:24:32.305Z,114.13
2022-12-24T09:26:59.302Z,115.30
2022-12-24T09:29:25.757Z,124.70
2022-12-24T09:31:52.683Z,113.93
2022-12-24T09:34:19.189Z,131.77
2022-12-24T09:36:46.377Z,115.03
2022-12-24T09:39:13.927Z,104.35
2022-12-24T09:42:07.312Z,117.10
2022-12-24T09:44:46.096Z,102.70
2022-12-24T09:47:38.405Z,157.30
2022-12-24T09:50:21.906Z,122.47
2022-12-24T09:52:50.215Z,110.75
2022-12-24T09:55:23.509Z,107.18
2022-12-24T09:57:53.376Z,115.82
2022-12-24T10:00:24.402Z,126.93
2022-12-24T10:02:51.265Z,100.43
2022-12-24T10:05:23.501Z,115.68
2022-12-24T10:08:05.437Z,108.97
2022-12-24T10:10:51.286Z,109.50
2022-12-24T10:13:36.817Z,118.72
2022-12-24T10:16:24.118Z,108.72
2022-12-24T10:19:02.691Z,99.65
2022-12-24T10:21:53.186Z,102.03
2022-12-24T10:24:28.449Z,107.00
2022-12-24T10:27:14.787Z,121.28
2022-12-24T10:29:46.197Z,120.13
2022-12-24T10:35:16.471Z,117.70
2022-12-24T10:37:44.947Z,113.13
2022-12-24T10:40:22.427Z,119.70
2022-12-24T10:42:51.539Z,122.47
2022-12-24T10:45:21.437Z,117.78
2022-12-24T10:47:52.751Z,109.10
2022-12-24T10:50:33.661Z,119.65
2022-12-24T10:53:07.614Z,117.57
2022-12-24T10:55:34.041Z,130.27
2022-12-24T10:58:07.319Z,115.20
2022-12-24T11:00:36.561Z,125.40
2022-12-24T11:03:13.508Z,112.45
2022-12-24T11:05:40.541Z,123.00
2022-12-24T11:08:12.934Z,126.70
2022-12-24T11:10:57.938Z,114.90
2022-12-24T11:13:37.583Z,107.68
2022-12-24T11:16:23.706Z,119.15
2022-12-24T11:18:52.915Z,117.68
2022-12-24T11:21:31.236Z,114.78
2022-12-24T11:24:04.144Z,123.53
2022-12-24T11:26:31.322Z,119.40
2022-12-24T11:29:03.789Z,106.50
2022-12-24T11:31:32.865Z,113.10
2022-12-24T11:33:59.387Z,116.00
2022-12-24T11:36:27.603Z,110.35
2022-12-24T11:38:56.955Z,102.57
2022-12-24T11:41:25.835Z,106.20
2022-12-24T11:44:01.328Z,105.88
2022-12-24T11:46:38.514Z,107.85
2022-12-24T11:49:15.995Z,113.25
2022-12-24T11:52:10.408Z,106.82
2022-12-24T11:55:16.349Z,109.93
2022-12-24T11:58:00.247Z,103.75
2022-12-24T12:00:27.451Z,109.60
2022-12-24T12:02:56.986Z,106.20
2022-12-24T12:05:29.764Z,108.53
2022-12-24T12:08:15.208Z,98.53
2022-12-24T12:10:44.353Z,111.47
2022-12-24T12:13:17.735Z,104.15
2022-12-24T12:15:52.936Z,125.50
2022-12-24T12:18:24.441Z,141.88
2022-12-24T12:23:25.747Z,126.55
2022-12-24T12:25:57.749Z,120.15
2022-12-24T12:28:45.493Z,113.25
2022-12-24T12:31:19.085Z,94.47
2022-12-24T12:33:54.840Z,109.07
2022-12-24T12:36:28.914Z,102.43
2022-12-24T12:38:55.356Z,113.03
2022-12-24T12:41:49.872Z,112.30
2022-12-24T12:44:31.655Z,100.53
2022-12-24T12:47:41.208Z,106.18
2022-12-24T12:50:29.365Z,108.82
2022-12-24T12:53:24.934Z,106.75
2022-12-24T12:56:05.798Z,99.55
2022-12-24T12:58:34.470Z,99.40
2022-12-24T13:01:13.407Z,97.30
2022-12-24T13:04:31.035Z,113.60
2022-12-24T13:07:15.974Z,104.55
2022-12-24T13:10:07.553Z,105.97
2022-12-24T13:12:52.582Z,112.90
2022-12-24T13:15:29.615Z,98.10
2022-12-24T13:18:43.068Z,98.97
2022-12-24T13:21:18.648Z,107.55
2022-12-24T13:23:45.231Z,114.57
2022-12-24T13:26:14.503Z,101.47
2022-12-24T13:28:42.091Z,106.55
2022-12-24T13:31:19.676Z,101.82
2022-12-24T13:33:49.761Z,106.28
2022-12-24T13:36:17.705Z,100.60
2022-12-24T13:38:44.110Z,98.03
2022-12-24T13:41:40.123Z,115.25
2022-12-24T13:44:06.795Z,104.45
2022-12-24T13:46:52.140Z,96.78
2022-12-24T13:49:28.136Z,101.18
2022-12-24T13:52:07.735Z,99.13
2022-12-24T13:54:35.789Z,100.25
2022-12-24T13:57:02.287Z,100.55
2022-12-24T13:59:39.031Z,98.20
2022-12-24T14:02:17.890Z,102.32
2022-12-24T14:04:44.587Z,95.22
2022-12-24T14:07:11.620Z,107.32
2022-12-24T14:09:38.146Z,96.85
2022-12-24T14:12:04.510Z,111.63
2022-12-24T14:14:49.106Z,113.45
2022-12-24T14:17:18.608Z,103.05
2022-12-24T14:19:54.382Z,101.07
2022-12-24T14:22:53.878Z,92.35
2022-12-24T14:25:23.335Z,89.53
2022-12-24T14:27:59.220Z,88.65
2022-12-24T14:30:27.977Z,92.30
2022-12-24T14:32:55.157Z,96.50
2022-12-24T14:35:36.832Z,93.57
2022-12-24T14:38:06.522Z,91.45
2022-12-24T14:40:49.147Z,91.63
2022-12-24T14:43:35.311Z,94.38
2022-12-24T14:46:21.459Z,90.40
2022-12-24T14:48:53.787Z,93.10
2022-12-24T14:51:49.069Z,100.88
2022-12-24T14:54:27.831Z,82.07
2022-12-24T14:57:09.977Z,91.50
2022-12-24T14:59:54.943Z,104.03
2022-12-24T15:02:49.331Z,90.40
2022-12-24T15:05:28.868Z,99.75
2022-12-24T15:08:01.316Z,97.35
2022-12-24T15:10:43.060Z,104.97
2022-12-24T15:13:36.703Z,96.53
2022-12-24T15:16:07.637Z,91.32
2022-12-24T15:18:37.707Z,95.85
2022-12-24T15:21:07.058Z,94.43
2022-12-24T15:23:36.799Z,89.18
2022-12-24T15:26:29.431Z,91.63
2022-12-24T15:29:03.142Z,89.03
2022-12-24T15:31:30.861Z,101.75
2022-12-24T15:33:59.450Z,88.10
2022-12-24T15:36:37.194Z,92.03
2022-12-24T15:39:07.452Z,85.50
2022-12-24T15:42:01.305Z,82.90
2022-12-24T15:44:32.643Z,80.28
2022-12-24T15:47:01.104Z,86.88
2022-12-24T15:49:30.354Z,85.90
2022-12-24T15:52:05.753Z,101.82
2022-12-24T15:54:32.271Z,90.10
2022-12-24T15:56:58.720Z,81.72
2022-12-24T15:59:38.165Z,85.82
2022-12-24T16:02:27.268Z,90.72
2022-12-24T16:04:54.041Z,95.82
2022-12-24T16:07:47.526Z,77.53
2022-12-24T16:10:26.305Z,76.85
2022-12-24T16:12:52.787Z,81.18
2022-12-24T16:15:19.371Z,77.30
2022-12-24T16:17:49.319Z,73.65
2022-12-24T16:20:22.045Z,86.03
2022-12-24T16:22:49.851Z,82.07
2022-12-24T16:25:20.840Z,78.80
2022-12-24T16:27:47.239Z,74.47
2022-12-24T16:30:13.836Z,80.18
2022-12-24T16:32:41.379Z,96.90
2022-12-24T16:35:20.333Z,93.60
2022-12-24T16:37:46.875Z,95.03
2022-12-24T16:40:19.364Z,76.18
2022-12-24T16:43:05.460Z,75.45
2022-12-24T16:45:33.339Z,87.60
2022-12-24T16:48:00.108Z,81.22
2022-12-24T16:50:26.673Z,76.93
2022-12-24T16:52:53.180Z,71.22
2022-12-24T16:55:19.619Z,72.22
2022-12-24T16:57:46.442Z,75.72
2022-12-24T17:00:18.057Z,70.25
2022-12-24T17:02:45.055Z,77.90
2022-12-24T17:05:12.061Z,81.43
2022-12-24T17:07:43.444Z,85.88
2022-12-24T17:10:14.277Z,74.97
2022-12-24T17:12:41.410Z,72.65
2022-12-24T17:15:08.646Z,70.05
2022-12-24T17:17:35.710Z,76.85
2022-12-24T17:20:04.483Z,74.75
2022-12-24T17:22:30.936Z,83.85
2022-12-24T17:24:57.402Z,85.30
2022-12-24T17:27:23.951Z,84.35
2022-12-24T17:29:50.519Z,85.78
2022-12-24T17:32:17.280Z,91.10
2022-12-24T17:34:43.743Z,93.63
2022-12-24T17:37:10.291Z,96.50
2022-12-24T17:39:36.871Z,93.80
2022-12-24T17:42:03.580Z,98.28
2022-12-24T17:44:30.248Z,95.47
2022-12-24T17:46:56.843Z,90.45
2022-12-24T17:49:23.392Z,99.32
2022-12-24T17:51:49.810Z,92.40
2022-12-24T17:54:16.230Z,94.10
2022-12-24T17:56:42.739Z,101.32
2022-12-24T17:59:09.152Z,98.00
2022-12-24T18:01:35.850Z,95.45
2022-12-24T18:04:03.479Z,112.90
2022-12-24T18:06:30.163Z,109.10
2022-12-24T18:08:57.142Z,114.60
2022-12-24T18:11:29.375Z,120.03
2022-12-24T18:13:57.098Z,118.00
2022-12-24T18:16:29.511Z,113.60
2022-12-24T18:18:56.788Z,118.07
2022-12-24T18:21:25.860Z,123.93
2022-12-24T18:23:53.120Z,116.00
2022-12-24T18:26:20.330Z,117.90
2022-12-24T18:28:47.360Z,120.13
2022-12-24T18:31:18.905Z,116.03
2022-12-24T18:36:13.108Z,122.68
2022-12-24T18:38:39.621Z,134.55
2022-12-24T18:41:08.461Z,117.82
2022-12-24T18:43:35.342Z,109.25
2022-12-24T18:46:13.871Z,112.45
2022-12-24T18:48:40.417Z,113.32
2022-12-24T18:51:09.211Z,116.80
2022-12-24T18:53:36.608Z,100.43
2022-12-24T18:56:07.580Z,109.25
2022-12-24T18:58:34.196Z,109.45
2022-12-24T19:01:00.744Z,103.95
2022-12-24T19:03:27.245Z,106.43
2022-12-24T19:05:53.741Z,109.50
2022-12-24T19:08:56.062Z,104.50
2022-12-24T19:11:06.721Z,109.10
2022-12-24T19:13:33.553Z,105.18
2022-12-24T19:16:00.273Z,101.80
2022-12-24T19:18:26.823Z,116.40
2022-12-24T19:20:53.250Z,123.82
2022-12-24T19:23:19.661Z,120.22
2022-12-24T19:25:46.120Z,119.15
2022-12-24T19:28:12.686Z,124.25
2022-12-24T19:30:42.314Z,117.22
2022-12-24T19:33:10.099Z,128.85
2022-12-24T19:35:36.855Z,129.52
2022-12-24T19:38:03.438Z,115.95
2022-12-24T19:40:30.695Z,112.65
2022-12-24T19:42:58.024Z,113.38
2022-12-24T19:45:25.674Z,116.63
2022-12-24T19:47:52.534Z,116.50
2022-12-24T19:50:20.180Z,105.35
2022-12-24T19:52:47.469Z,111.78
2022-12-24T19:55:15.083Z,118.85
2022-12-24T19:57:41.707Z,112.30
2022-12-24T20:00:10.289Z,113.93
2022-12-24T20:02:36.850Z,104.03
2022-12-24T20:05:03.621Z,120.15
2022-12-24T20:07:30.117Z,104.78
2022-12-24T20:09:56.509Z,111.50
2022-12-24T20:12:22.954Z,113.40
2022-12-24T20:14:49.371Z,117.05
2022-12-24T20:17:15.773Z,118.43
2022-12-24T20:19:42.176Z,118.38
2022-12-24T20:22:08.589Z,114.97
2022-12-24T20:24:35.040Z,110.93
2022-12-24T20:27:01.447Z,108.80
2022-12-24T20:29:28.132Z,116.88
2022-12-24T20:31:54.609Z,124.75
2022-12-24T20:34:21.037Z,118.07
2022-12-24T20:36:47.436Z,123.65
2022-12-24T20:39:13.869Z,119.18
2022-12-24T20:41:40.361Z,112.40
2022-12-24T20:44:06.819Z,119.70
2022-12-24T20:46:33.679Z,127.25
2022-12-24T20:49:00.298Z,115.55
2022-12-24T20:51:27.885Z,110.78
2022-12-24T20:53:57.205Z,106.35
2022-12-24T20:56:24.321Z,104.22
2022-12-24T20:58:50.906Z,113.05
2022-12-24T21:01:20.735Z,106.28
2022-12-24T21:03:47.564Z,110.40
2022-12-24T21:06:15.558Z,101.05
2022-12-24T21:08:42.672Z,101.00
2022-12-24T21:11:27.390Z,114.20
2022-12-24T21:13:53.853Z,105.25
2022-12-24T21:16:20.433Z,107.13
2022-12-24T21:18:46.946Z,122.78
2022-12-24T21:21:13.436Z,117.78
2022-12-24T21:23:39.972Z,103.90
2022-12-24T21:26:06.468Z,108.95
2022-12-24T21:28:33.246Z,114.38
2022-12-24T21:30:59.746Z,108.72
2022-12-24T21:33:26.539Z,121.15
2022-12-24T21:35:59.901Z,113.03
2022-12-24T21:38:26.534Z,125.70
2022-12-24T21:41:21.662Z,118.07
2022-12-24T21:43:48.085Z,115.40
2022-12-24T21:46:22.130Z,108.88
2022-12-24T21:49:12.457Z,125.43
2022-12-24T21:51:39.508Z,106.05
2022-12-24T21:54:25.604Z,102.97
2022-12-24T21:57:12.565Z,114.60
2022-12-24T21:59:39.282Z,105.00
2022-12-24T22:02:07.080Z,104.03
2022-12-24T22:04:34.428Z,113.80
2022-12-24T22:07:19.469Z,112.05
2022-12-24T22:10:04.223Z,100.00
2022-12-24T22:12:33.287Z,118.57
2022-12-24T22:15:00.140Z,104.68
2022-12-24T22:17:28.606Z,107.13
2022-12-24T22:19:55.381Z,97.00
2022-12-24T22:22:22.514Z,112.93
2022-12-24T22:24:48.962Z,102.45
2022-12-24T22:27:15.440Z,99.25
2022-12-24T22:29:41.964Z,115.78
2022-12-24T22:32:08.384Z,115.07
2022-12-24T22:34:36.009Z,120.22
2022-12-24T22:37:02.461Z,108.35
2022-12-24T22:39:28.954Z,107.68
2022-12-24T22:41:57.855Z,115.97
2022-12-24T22:44:24.892Z,116.90
2022-12-24T22:46:51.450Z,103.03
2022-12-24T22:49:17.882Z,111.15
2022-12-24T22:51:44.298Z,105.80
2022-12-24T22:54:10.943Z,105.18
2022-12-24T22:56:41.265Z,105.97
2022-12-24T22:59:09.094Z,103.43
2022-12-24T23:01:40.012Z,102.32
2022-12-24T23:04:07.150Z,105.45
2022-12-24T23:06:34.459Z,102.40
2022-12-24T23:09:01.497Z,101.30
2022-12-24T23:11:27.992Z,99.47
2022-12-24T23:14:12.934Z,94.70
2022-12-24T23:16:39.419Z,100.68
2022-12-24T23:19:06.728Z,96.25
2022-12-24T23:21:33.700Z,88.15
2022-12-24T23:24:01.772Z,93.10
2022-12-24T23:26:29.236Z,98.00
2022-12-24T23:28:56.785Z,94.65
2022-12-24T23:31:24.430Z,88.80
2022-12-24T23:33:51.262Z,84.70
2022-12-24T23:36:17.782Z,93.05
2022-12-24T23:38:44.390Z,90.72
2022-12-24T23:41:11.450Z,95.72
2022-12-24T23:43:37.958Z,94.32
2022-12-24T23:46:04.659Z,90.78
2022-12-24T23:48:31.175Z,97.18
2022-12-24T23:51:09.726Z,90.10
2022-12-24T23:53:36.597Z,88.57
2022-12-24T23:56:04.312Z,82.70
2022-12-24T23:58:31.172Z,85.80
